createdAt,value
2022-09-12T00:01:40.571Z,18.10
2022-09-12T00:04:11.036Z,18.10
2022-09-12T00:06:40.473Z,18.10
2022-09-12T00:09:11.377Z,18.00
2022-09-12T00:11:44.247Z,18.00
2022-09-12T00:14:16.673Z,18.00
2022-09-12T00:16:44.629Z,18.00
2022-09-12T00:19:12.323Z,17.90
2022-09-12T00:21:40.593Z,17.90
2022-09-12T00:24:12.356Z,17.90
2022-09-12T00:26:42.488Z,17.90
2022-09-12T00:29:17.347Z,17.90
2022-09-12T00:31:44.842Z,17.80
2022-09-12T00:34:16.945Z,17.80
2022-09-12T00:36:48.497Z,17.80
2022-09-12T00:39:17.351Z,17.80
2022-09-12T00:41:44.793Z,17.80
2022-09-12T00:44:24.282Z,17.80
2022-09-12T00:47:05.604Z,17.80
2022-09-12T00:49:56.485Z,17.70
2022-09-12T00:52:40.247Z,17.70
2022-09-12T00:55:19.081Z,17.70
2022-09-12T00:58:04.376Z,17.60
2022-09-12T01:00:31.834Z,17.60
2022-09-12T01:03:02.216Z,17.50
2022-09-12T01:05:31.204Z,17.50
2022-09-12T01:08:00.615Z,17.50
2022-09-12T01:10:27.812Z,17.50
2022-09-12T01:12:58.197Z,17.50
2022-09-12T01:15:30.935Z,17.40
2022-09-12T01:18:15.535Z,17.40
2022-09-12T01:20:51.602Z,17.40
2022-09-12T01:23:41.272Z,17.40
2022-09-12T01:26:40.856Z,17.30
2022-09-12T01:29:16.858Z,17.30
2022-09-12T01:32:05.305Z,17.30
2022-09-12T01:34:40.645Z,17.20
2022-09-12T01:37:07.738Z,17.20
2022-09-12T01:39:57.881Z,17.20
2022-09-12T01:42:47.040Z,17.20
2022-09-12T01:45:32.440Z,17.20
2022-09-12T01:48:24.386Z,17.20
2022-09-12T01:51:17.989Z,17.10
2022-09-12T01:53:50.537Z,17.10
2022-09-12T01:56:31.949Z,17.10
2022-09-12T01:59:10.976Z,17.10
2022-09-12T02:01:56.426Z,17.10
2022-09-12T02:04:34.239Z,17.00
2022-09-12T02:07:12.261Z,17.00
2022-09-12T02:09:52.521Z,17.00
2022-09-12T02:12:27.846Z,17.00
2022-09-12T02:15:09.819Z,16.90
2022-09-12T02:17:42.429Z,16.90
2022-09-12T02:20:46.364Z,16.90
2022-09-12T02:23:15.702Z,16.90
2022-09-12T02:25:47.839Z,16.80
2022-09-12T02:28:25.311Z,16.80
2022-09-12T02:31:27.347Z,16.80
2022-09-12T02:34:29.082Z,16.80
2022-09-12T02:37:39.897Z,16.80
2022-09-12T02:40:08.932Z,16.80
2022-09-12T02:42:41.172Z,16.70
2022-09-12T02:45:13.618Z,16.70
2022-09-12T02:47:45.987Z,16.80
2022-09-12T02:50:15.997Z,16.70
2022-09-12T02:52:44.393Z,16.70
2022-09-12T02:55:16.843Z,16.70
2022-09-12T02:57:44.755Z,16.70
2022-09-12T03:00:12.798Z,16.70
2022-09-12T03:02:45.047Z,16.60
2022-09-12T03:05:21.652Z,16.70
2022-09-12T03:08:15.329Z,16.60
2022-09-12T03:11:16.487Z,16.60
2022-09-12T03:14:15.988Z,16.60
2022-09-12T03:17:10.820Z,16.50
2022-09-12T03:19:48.665Z,16.60
2022-09-12T03:22:29.095Z,16.50
2022-09-12T03:25:22.050Z,16.50
2022-09-12T03:28:07.349Z,16.40
2022-09-12T03:30:43.141Z,16.40
2022-09-12T03:33:19.161Z,16.40
2022-09-12T03:35:47.520Z,16.40
2022-09-12T03:38:17.939Z,16.40
2022-09-12T03:40:52.733Z,16.40
2022-09-12T03:43:21.895Z,16.40
2022-09-12T03:45:54.148Z,16.30
2022-09-12T03:48:23.943Z,16.40
2022-09-12T03:50:51.111Z,16.30
2022-09-12T03:53:18.282Z,16.40
2022-09-12T03:55:45.506Z,16.30
2022-09-12T03:58:12.639Z,16.30
2022-09-12T04:00:40.140Z,16.30
2022-09-12T04:03:09.759Z,16.30
2022-09-12T04:05:36.901Z,16.30
2022-09-12T04:08:06.442Z,16.20
2022-09-12T04:10:38.074Z,16.20
2022-09-12T04:13:07.954Z,16.20
2022-09-12T04:15:37.317Z,16.20
2022-09-12T04:18:06.139Z,16.20
2022-09-12T04:20:33.603Z,16.20
2022-09-12T04:23:06.360Z,16.20
2022-09-12T04:25:33.636Z,16.20
2022-09-12T04:28:01.082Z,16.10
2022-09-12T04:30:30.685Z,16.20
2022-09-12T04:32:57.969Z,16.20
2022-09-12T04:35:27.713Z,16.10
2022-09-12T04:37:59.373Z,16.10
2022-09-12T04:40:31.784Z,16.10
2022-09-12T04:43:08.447Z,16.10
2022-09-12T04:45:38.409Z,16.10
2022-09-12T04:48:08.272Z,16.10
2022-09-12T04:50:39.844Z,16.10
2022-09-12T04:53:07.207Z,16.10
2022-09-12T04:55:35.588Z,16.10
2022-09-12T04:58:02.878Z,16.10
2022-09-12T05:00:33.100Z,16.10
2022-09-12T05:03:00.260Z,16.10
2022-09-12T05:05:31.690Z,16.10
2022-09-12T05:08:03.104Z,16.00
2022-09-12T05:10:31.230Z,16.00
2022-09-12T05:12:58.387Z,16.00
2022-09-12T05:15:26.081Z,16.00
2022-09-12T05:17:55.453Z,16.00
2022-09-12T05:20:22.607Z,16.00
2022-09-12T05:22:53.958Z,16.00
2022-09-12T05:25:23.287Z,16.00
2022-09-12T05:27:56.899Z,16.00
2022-09-12T05:30:24.035Z,16.00
2022-09-12T05:32:51.552Z,16.00
2022-09-12T05:35:18.787Z,16.00
2022-09-12T05:37:48.692Z,16.00
2022-09-12T05:40:17.980Z,16.00
2022-09-12T05:42:45.166Z,16.00
2022-09-12T05:45:14.928Z,16.00
2022-09-12T05:47:45.179Z,16.00
2022-09-12T05:50:12.387Z,16.00
2022-09-12T05:52:39.846Z,15.90
2022-09-12T05:55:07.336Z,15.90
2022-09-12T05:57:34.524Z,15.90
2022-09-12T06:00:02.211Z,15.90
2022-09-12T06:02:31.896Z,15.90
2022-09-12T06:04:59.053Z,15.90
2022-09-12T06:07:32.080Z,15.90
2022-09-12T06:10:05.346Z,15.90
2022-09-12T06:12:32.653Z,15.90
2022-09-12T06:14:59.783Z,15.90
2022-09-12T06:17:26.987Z,15.90
2022-09-12T06:19:54.179Z,15.90
2022-09-12T06:22:21.372Z,15.90
2022-09-12T06:24:53.742Z,15.90
2022-09-12T06:27:25.242Z,15.90
2022-09-12T06:29:52.668Z,15.90
2022-09-12T06:32:21.981Z,15.90
2022-09-12T06:34:54.394Z,15.90
2022-09-12T06:37:23.958Z,15.90
2022-09-12T06:39:51.397Z,16.00
2022-09-12T06:42:20.007Z,16.00
2022-09-12T06:44:47.208Z,16.00
2022-09-12T06:47:16.606Z,16.00
2022-09-12T06:49:44.695Z,16.10
2022-09-12T06:52:14.396Z,16.10
2022-09-12T06:54:43.769Z,16.10
2022-09-12T06:57:11.074Z,16.10
2022-09-12T06:59:42.733Z,16.20
2022-09-12T07:02:12.720Z,16.20
2022-09-12T07:04:39.931Z,16.20
2022-09-12T07:07:07.834Z,16.30
2022-09-12T07:09:37.554Z,16.30
2022-09-12T07:12:07.296Z,16.40
2022-09-12T07:14:34.626Z,16.40
2022-09-12T07:17:04.024Z,16.50
2022-09-12T07:19:31.214Z,16.60
2022-09-12T07:22:00.605Z,16.60
2022-09-12T07:24:29.908Z,16.70
2022-09-12T07:26:57.083Z,16.80
2022-09-12T07:29:39.545Z,16.80
2022-09-12T07:32:09.866Z,16.90
2022-09-12T07:34:39.807Z,17.00
2022-09-12T07:37:14.385Z,17.00
2022-09-12T07:39:45.881Z,17.10
2022-09-12T07:42:13.280Z,17.20
2022-09-12T07:44:42.726Z,17.30
2022-09-12T07:47:09.908Z,17.30
2022-09-12T07:49:44.294Z,17.40
2022-09-12T07:52:16.005Z,17.50
2022-09-12T07:54:47.744Z,17.60
2022-09-12T07:57:19.478Z,17.70
2022-09-12T07:59:52.990Z,17.80
2022-09-12T08:02:20.924Z,17.90
2022-09-12T08:04:54.710Z,18.00
2022-09-12T08:07:34.365Z,18.10
2022-09-12T08:10:04.069Z,18.20
2022-09-12T08:12:32.294Z,18.20
2022-09-12T08:15:02.468Z,18.30
2022-09-12T08:17:32.791Z,18.40
2022-09-12T08:19:59.979Z,18.50
2022-09-12T08:22:30.216Z,18.60
2022-09-12T08:24:57.353Z,18.70
2022-09-12T08:27:26.858Z,18.80
2022-09-12T08:29:55.460Z,18.90
2022-09-12T08:32:22.706Z,18.90
2022-09-12T08:34:50.042Z,19.00
2022-09-12T08:37:17.295Z,19.00
2022-09-12T08:39:49.342Z,19.10
2022-09-12T08:42:37.645Z,19.20
2022-09-12T08:45:22.759Z,19.30
2022-09-12T08:47:56.465Z,19.30
2022-09-12T08:50:26.636Z,19.40
2022-09-12T08:53:28.896Z,19.50
2022-09-12T08:56:00.462Z,19.50
2022-09-12T08:58:30.531Z,19.60
2022-09-12T09:01:02.274Z,19.70
2022-09-12T09:04:00.521Z,19.70
2022-09-12T09:06:52.852Z,19.80
2022-09-12T09:09:39.438Z,19.80
2022-09-12T09:12:27.074Z,19.90
2022-09-12T09:15:26.478Z,19.90
2022-09-12T09:18:10.770Z,20.00
2022-09-12T09:20:42.786Z,20.00
2022-09-12T09:23:34.882Z,20.10
2022-09-12T09:26:15.362Z,20.10
2022-09-12T09:28:52.607Z,20.20
2022-09-12T09:31:25.578Z,20.20
2022-09-12T09:33:57.568Z,20.20
2022-09-12T09:36:51.005Z,20.30
2022-09-12T09:39:36.184Z,20.30
2022-09-12T09:42:12.257Z,20.40
2022-09-12T09:44:39.835Z,20.40
2022-09-12T09:47:12.774Z,20.40
2022-09-12T09:49:40.766Z,20.40
2022-09-12T09:52:11.994Z,20.50
2022-09-12T09:54:44.587Z,20.50
2022-09-12T09:57:36.437Z,20.60
2022-09-12T10:00:30.627Z,20.70
2022-09-12T10:03:13.445Z,20.70
2022-09-12T10:06:25.330Z,20.70
2022-09-12T10:09:25.023Z,20.80
2022-09-12T10:11:54.090Z,20.80
2022-09-12T10:14:27.401Z,20.80
2022-09-12T10:16:54.833Z,20.90
2022-09-12T10:19:30.385Z,21.00
2022-09-12T10:21:57.603Z,21.00
2022-09-12T10:24:27.020Z,21.00
2022-09-12T10:26:57.271Z,21.10
2022-09-12T10:29:24.456Z,21.10
2022-09-12T10:31:56.001Z,21.10
2022-09-12T10:34:30.502Z,21.20
2022-09-12T10:37:06.755Z,21.20
2022-09-12T10:39:36.139Z,21.20
2022-09-12T10:42:05.625Z,21.30
2022-09-12T10:44:35.216Z,21.30
2022-09-12T10:47:30.849Z,21.40
2022-09-12T10:50:23.058Z,21.40
2022-09-12T10:53:14.835Z,21.50
2022-09-12T10:56:14.318Z,21.50
2022-09-12T10:59:03.244Z,21.50
2022-09-12T11:01:36.340Z,21.50
2022-09-12T11:04:30.788Z,21.60
2022-09-12T11:07:29.419Z,21.60
2022-09-12T11:10:06.338Z,21.70
2022-09-12T11:13:21.381Z,21.70
2022-09-12T11:16:12.536Z,21.80
2022-09-12T11:19:03.857Z,21.80
2022-09-12T11:22:16.466Z,21.90
2022-09-12T11:25:10.232Z,21.90
2022-09-12T11:27:40.374Z,22.00
2022-09-12T11:30:16.067Z,22.00
2022-09-12T11:32:54.966Z,22.10
2022-09-12T11:35:32.902Z,22.10
2022-09-12T11:38:32.480Z,22.20
2022-09-12T11:41:07.127Z,22.20
2022-09-12T11:44:14.243Z,22.20
2022-09-12T11:46:45.233Z,22.30
2022-09-12T11:49:35.822Z,22.30
2022-09-12T11:52:17.220Z,22.30
2022-09-12T11:55:03.804Z,22.40
2022-09-12T11:57:36.923Z,22.40
2022-09-12T12:00:12.122Z,22.50
2022-09-12T12:03:09.545Z,22.50
2022-09-12T12:05:45.323Z,22.60
2022-09-12T12:08:14.752Z,22.60
2022-09-12T12:10:53.928Z,22.70
2022-09-12T12:13:35.461Z,22.70
2022-09-12T12:16:14.217Z,22.70
2022-09-12T12:18:45.658Z,22.80
2022-09-12T12:21:43.502Z,22.80
2022-09-12T12:24:24.282Z,22.90
2022-09-12T12:26:57.405Z,22.90
2022-09-12T12:29:30.430Z,22.90
2022-09-12T12:32:03.508Z,22.90
2022-09-12T12:34:32.069Z,22.90
2022-09-12T12:37:19.861Z,23.00
2022-09-12T12:39:48.243Z,23.10
2022-09-12T12:42:36.496Z,23.10
2022-09-12T12:45:11.588Z,23.20
2022-09-12T12:47:38.660Z,23.20
2022-09-12T12:50:14.452Z,23.30
2022-09-12T12:52:57.297Z,23.30
2022-09-12T12:55:35.356Z,23.40
2022-09-12T12:58:05.475Z,23.50
2022-09-12T13:00:40.069Z,23.50
2022-09-12T13:03:09.640Z,23.50
2022-09-12T13:05:48.767Z,23.60
2022-09-12T13:08:18.675Z,23.70
2022-09-12T13:11:02.010Z,23.70
2022-09-12T13:13:48.793Z,23.80
2022-09-12T13:16:37.714Z,23.80
2022-09-12T13:19:18.112Z,23.90
2022-09-12T13:22:10.409Z,23.90
2022-09-12T13:24:52.510Z,24.00
2022-09-12T13:27:22.711Z,24.00
2022-09-12T13:29:50.221Z,24.00
2022-09-12T13:32:18.481Z,24.00
2022-09-12T13:34:48.492Z,24.10
2022-09-12T13:37:40.171Z,24.20
2022-09-12T13:40:37.089Z,24.20
2022-09-12T13:43:15.315Z,24.30
2022-09-12T13:45:45.827Z,24.30
2022-09-12T13:48:23.831Z,24.40
2022-09-12T13:50:52.988Z,24.50
2022-09-12T13:53:24.208Z,24.50
2022-09-12T13:55:59.108Z,24.60
2022-09-12T13:58:32.473Z,24.60
2022-09-12T14:01:02.521Z,24.70
2022-09-12T14:03:55.744Z,24.70
2022-09-12T14:06:28.478Z,24.80
2022-09-12T14:08:57.596Z,24.80
2022-09-12T14:11:28.968Z,24.80
2022-09-12T14:13:58.853Z,24.80
2022-09-12T14:16:29.100Z,24.90
2022-09-12T14:18:57.159Z,24.90
2022-09-12T14:21:28.490Z,24.90
2022-09-12T14:23:57.320Z,25.00
2022-09-12T14:26:33.758Z,25.00
2022-09-12T14:29:04.985Z,25.00
2022-09-12T14:31:35.808Z,25.10
2022-09-12T14:34:18.214Z,25.20
2022-09-12T14:36:51.773Z,25.20
2022-09-12T14:39:27.272Z,25.20
2022-09-12T14:42:13.907Z,25.30
2022-09-12T14:44:50.444Z,25.30
2022-09-12T14:47:25.456Z,25.30
2022-09-12T14:49:55.116Z,25.40
2022-09-12T14:52:38.080Z,25.40
2022-09-12T14:55:29.525Z,25.40
2022-09-12T14:58:28.481Z,25.50
2022-09-12T15:01:08.303Z,25.50
2022-09-12T15:03:44.938Z,25.60
2022-09-12T15:06:28.753Z,25.60
2022-09-12T15:09:05.474Z,25.60
2022-09-12T15:11:33.774Z,25.60
2022-09-12T15:14:12.803Z,25.70
2022-09-12T15:16:42.380Z,25.70
2022-09-12T15:19:09.768Z,25.70
2022-09-12T15:21:37.866Z,25.80
2022-09-12T15:24:08.684Z,25.80
2022-09-12T15:26:38.196Z,25.80
2022-09-12T15:29:05.342Z,25.80
2022-09-12T15:31:35.394Z,25.90
2022-09-12T15:34:03.275Z,26.00
2022-09-12T15:36:34.645Z,26.00
2022-09-12T15:39:04.164Z,26.10
2022-09-12T15:41:37.433Z,26.10
2022-09-12T15:44:11.268Z,26.10
2022-09-12T15:46:41.144Z,26.20
2022-09-12T15:49:08.371Z,26.20
2022-09-12T15:51:37.559Z,26.30
2022-09-12T15:54:04.966Z,26.30
2022-09-12T15:56:35.011Z,26.40
2022-09-12T15:59:07.215Z,26.40
2022-09-12T16:01:36.535Z,26.50
2022-09-12T16:04:17.182Z,26.50
2022-09-12T16:06:46.815Z,26.60
2022-09-12T16:09:16.921Z,26.70
2022-09-12T16:11:45.189Z,26.70
2022-09-12T16:14:18.154Z,26.70
2022-09-12T16:16:59.110Z,26.70
2022-09-12T16:19:26.342Z,26.70
2022-09-12T16:21:53.496Z,26.80
2022-09-12T16:24:25.114Z,26.80
2022-09-12T16:26:52.295Z,26.80
2022-09-12T16:29:21.833Z,26.80
2022-09-12T16:31:51.136Z,26.70
2022-09-12T16:34:18.310Z,26.70
2022-09-12T16:36:48.486Z,26.70
2022-09-12T16:39:20.487Z,26.60
2022-09-12T16:41:52.606Z,26.60
2022-09-12T16:44:24.413Z,26.60
2022-09-12T16:46:53.958Z,26.60
2022-09-12T16:49:21.792Z,26.60
2022-09-12T16:51:51.142Z,26.60
2022-09-12T16:54:18.393Z,26.50
2022-09-12T16:56:46.650Z,26.50
2022-09-12T16:59:16.367Z,26.50
2022-09-12T17:01:45.997Z,26.50
2022-09-12T17:04:15.818Z,26.40
2022-09-12T17:06:45.557Z,26.40
2022-09-12T17:09:18.317Z,26.30
2022-09-12T17:11:50.330Z,26.30
2022-09-12T17:14:20.269Z,26.30
2022-09-12T17:16:52.032Z,26.30
2022-09-12T17:19:32.299Z,26.30
2022-09-12T17:22:01.854Z,26.30
2022-09-12T17:24:29.018Z,26.20
2022-09-12T17:26:59.393Z,26.20
2022-09-12T17:29:28.930Z,26.20
2022-09-12T17:32:03.269Z,26.20
2022-09-12T17:34:30.803Z,26.20
2022-09-12T17:37:02.460Z,26.20
2022-09-12T17:39:29.655Z,26.20
2022-09-12T17:42:00.167Z,26.10
2022-09-12T17:44:29.753Z,26.10
2022-09-12T17:46:56.869Z,26.00
2022-09-12T17:49:24.192Z,26.10
2022-09-12T17:51:52.386Z,26.00
2022-09-12T17:54:22.272Z,26.00
2022-09-12T17:56:51.250Z,26.00
2022-09-12T17:59:21.592Z,25.90
2022-09-12T18:02:07.694Z,25.90
2022-09-12T18:04:35.374Z,25.80
2022-09-12T18:07:02.568Z,25.70
2022-09-12T18:09:32.217Z,25.70
2022-09-12T18:11:59.731Z,25.60
2022-09-12T18:14:28.452Z,25.50
2022-09-12T18:17:00.133Z,25.50
2022-09-12T18:19:28.919Z,25.40
2022-09-12T18:22:00.490Z,25.30
2022-09-12T18:24:30.211Z,25.30
2022-09-12T18:26:57.600Z,25.20
2022-09-12T18:29:29.212Z,25.10
2022-09-12T18:31:59.287Z,25.00
2022-09-12T18:34:31.589Z,25.00
2022-09-12T18:36:59.121Z,24.90
2022-09-12T18:39:30.846Z,24.80
2022-09-12T18:42:00.370Z,24.70
2022-09-12T18:44:27.898Z,24.70
2022-09-12T18:46:57.546Z,24.60
2022-09-12T18:49:26.973Z,24.60
2022-09-12T18:51:57.006Z,24.50
2022-09-12T18:54:26.656Z,24.50
2022-09-12T18:56:53.778Z,24.40
2022-09-12T18:59:24.222Z,24.30
2022-09-12T19:01:53.610Z,24.30
2022-09-12T19:04:20.857Z,24.20
2022-09-12T19:06:48.404Z,24.20
2022-09-12T19:09:20.672Z,24.10
2022-09-12T19:11:50.369Z,24.00
2022-09-12T19:14:19.592Z,24.00
2022-09-12T19:16:46.987Z,23.90
2022-09-12T19:19:14.460Z,23.80
2022-09-12T19:21:44.087Z,23.80
2022-09-12T19:24:11.904Z,23.70
2022-09-12T19:26:39.968Z,23.70
2022-09-12T19:29:10.317Z,23.70
2022-09-12T19:31:37.472Z,23.60
2022-09-12T19:34:09.014Z,23.50
2022-09-12T19:36:46.400Z,23.50
2022-09-12T19:39:19.487Z,23.50
2022-09-12T19:41:49.242Z,23.40
2022-09-12T19:44:19.316Z,23.40
2022-09-12T19:46:46.614Z,23.30
2022-09-12T19:49:16.295Z,23.30
2022-09-12T19:51:50.290Z,23.30
2022-09-12T19:54:19.603Z,23.20
2022-09-12T19:56:49.095Z,23.20
2022-09-12T19:59:18.420Z,23.20
2022-09-12T20:01:45.786Z,23.10
2022-09-12T20:04:13.042Z,23.10
2022-09-12T20:06:40.236Z,23.00
2022-09-12T20:09:09.674Z,23.00
2022-09-12T20:11:39.362Z,23.00
2022-09-12T20:14:07.014Z,22.90
2022-09-12T20:16:37.243Z,22.90
2022-09-12T20:19:09.615Z,22.90
2022-09-12T20:21:39.357Z,22.80
2022-09-12T20:24:10.236Z,22.80
2022-09-12T20:26:37.696Z,22.70
2022-09-12T20:29:05.856Z,22.70
2022-09-12T20:31:37.127Z,22.60
2022-09-12T20:34:07.441Z,22.60
2022-09-12T20:36:34.843Z,22.50
2022-09-12T20:39:02.708Z,22.50
2022-09-12T20:41:32.878Z,22.40
2022-09-12T20:44:02.355Z,22.40
2022-09-12T20:46:31.652Z,22.40
2022-09-12T20:48:59.195Z,22.30
2022-09-12T20:51:27.199Z,22.30
2022-09-12T20:54:01.329Z,22.20
2022-09-12T20:56:31.797Z,22.20
2022-09-12T20:59:01.588Z,22.20
2022-09-12T21:01:32.013Z,22.10
2022-09-12T21:04:01.075Z,22.10
2022-09-12T21:06:28.885Z,22.10
2022-09-12T21:09:00.555Z,22.00
2022-09-12T21:11:30.769Z,22.00
2022-09-12T21:14:03.058Z,22.00
2022-09-12T21:16:38.347Z,21.90
2022-09-12T21:19:08.672Z,21.90
2022-09-12T21:21:36.376Z,21.90
2022-09-12T21:24:04.324Z,21.80
2022-09-12T21:26:33.832Z,21.80
2022-09-12T21:29:05.292Z,21.80
2022-09-12T21:31:34.734Z,21.70
2022-09-12T21:34:04.492Z,21.70
2022-09-12T21:36:31.651Z,21.70
2022-09-12T21:39:01.592Z,21.60
2022-09-12T21:41:31.326Z,21.60
2022-09-12T21:43:58.676Z,21.60
2022-09-12T21:46:26.033Z,21.60
2022-09-12T21:48:53.392Z,21.50
2022-09-12T21:51:20.558Z,21.50
2022-09-12T21:53:47.835Z,21.50
2022-09-12T21:56:17.551Z,21.50
2022-09-12T21:58:47.446Z,21.50
2022-09-12T22:01:14.782Z,21.50
2022-09-12T22:03:44.994Z,21.40
2022-09-12T22:06:21.936Z,21.40
2022-09-12T22:08:49.779Z,21.40
2022-09-12T22:11:21.811Z,21.40
2022-09-12T22:13:51.089Z,21.40
2022-09-12T22:16:20.456Z,21.40
2022-09-12T22:18:47.689Z,21.30
2022-09-12T22:21:17.054Z,21.30
2022-09-12T22:24:07.749Z,21.30
2022-09-12T22:26:46.194Z,21.40
2022-09-12T22:29:16.022Z,21.30
2022-09-12T22:31:45.530Z,21.30
2022-09-12T22:34:14.957Z,21.40
2022-09-12T22:36:42.058Z,21.40
2022-09-12T22:39:11.792Z,21.40
2022-09-12T22:41:43.769Z,21.40
2022-09-12T22:44:13.188Z,21.40
2022-09-12T22:46:43.515Z,21.40
2022-09-12T22:49:10.723Z,21.40
2022-09-12T22:51:38.251Z,21.40
2022-09-12T22:54:09.477Z,21.40
2022-09-12T22:56:36.796Z,21.40
2022-09-12T22:59:09.416Z,21.40
2022-09-12T23:01:39.224Z,21.40
2022-09-12T23:04:10.405Z,21.40
2022-09-12T23:06:40.553Z,21.40
2022-09-12T23:09:10.370Z,21.40
2022-09-12T23:11:38.941Z,21.40
2022-09-12T23:14:10.768Z,21.40
2022-09-12T23:16:40.183Z,21.40
2022-09-12T23:19:14.629Z,21.40
2022-09-12T23:21:46.381Z,21.40
2022-09-12T23:24:13.598Z,21.40
2022-09-12T23:26:43.251Z,21.40
2022-09-12T23:29:13.052Z,21.40
2022-09-12T23:31:40.236Z,21.40
2022-09-12T23:34:09.192Z,21.40
2022-09-12T23:36:36.664Z,21.30
2022-09-12T23:39:06.851Z,21.30
2022-09-12T23:41:34.044Z,21.30
2022-09-12T23:44:03.865Z,21.30
2022-09-12T23:46:31.173Z,21.20
2022-09-12T23:49:02.920Z,21.20
2022-09-12T23:51:32.665Z,21.20
2022-09-12T23:54:02.897Z,21.20
2022-09-12T23:56:30.028Z,21.10
2022-09-12T23:58:57.384Z,21.10
